createdAt,value
2023-05-02T00:00:34.611Z,11.59
2023-05-02T00:03:36.989Z,11.55
2023-05-02T00:06:39.234Z,11.51
2023-05-02T00:09:42.682Z,11.48
2023-05-02T00:12:46.255Z,11.46
2023-05-02T00:15:49.648Z,11.47
2023-05-02T00:18:51.801Z,11.39
2023-05-02T00:21:55.415Z,11.37
2023-05-02T00:24:57.504Z,11.39
2023-05-02T00:28:00.668Z,11.45
2023-05-02T00:31:02.511Z,11.41
2023-05-02T00:34:06.403Z,11.28
2023-05-02T00:37:10.730Z,11.35
2023-05-02T00:40:14.072Z,11.24
2023-05-02T00:43:17.228Z,11.29
2023-05-02T00:46:19.153Z,11.33
2023-05-02T00:49:21.669Z,11.29
2023-05-02T00:52:23.917Z,11.37
2023-05-02T00:55:28.504Z,11.40
2023-05-02T00:58:32.243Z,11.40
2023-05-02T01:01:53.544Z,11.40
2023-05-02T01:05:02.587Z,11.00
2023-05-02T01:08:13.747Z,10.88
2023-05-02T01:11:23.845Z,10.77
2023-05-02T01:14:31.014Z,10.58
2023-05-02T01:17:36.725Z,10.62
2023-05-02T01:20:43.493Z,10.54
2023-05-02T01:24:00.881Z,10.61
2023-05-02T01:27:14.589Z,10.67
2023-05-02T01:30:20.589Z,10.55
2023-05-02T01:33:24.347Z,10.54
2023-05-02T01:36:29.334Z,10.65
2023-05-02T01:39:32.905Z,10.63
2023-05-02T01:42:37.645Z,10.68
2023-05-02T01:45:43.773Z,10.73
2023-05-02T01:48:48.738Z,10.64
2023-05-02T01:51:51.863Z,10.66
2023-05-02T01:54:57.918Z,10.68
2023-05-02T01:58:00.297Z,10.55
2023-05-02T02:01:09.269Z,10.62
2023-05-02T02:04:15.124Z,10.63
2023-05-02T02:07:17.730Z,10.55
2023-05-02T02:10:20.910Z,10.50
2023-05-02T02:13:29.942Z,10.46
2023-05-02T02:16:37.008Z,10.38
2023-05-02T02:19:41.237Z,10.41
2023-05-02T02:22:44.433Z,10.27
2023-05-02T02:25:47.010Z,10.34
2023-05-02T02:28:49.343Z,10.28
2023-05-02T02:31:53.057Z,10.25
2023-05-02T02:34:55.341Z,10.34
2023-05-02T02:38:06.628Z,10.32
2023-05-02T02:41:16.859Z,10.33
2023-05-02T02:44:32.406Z,10.21
2023-05-02T02:47:44.086Z,10.14
2023-05-02T02:50:59.835Z,10.20
2023-05-02T02:54:25.796Z,10.19
2023-05-02T02:57:47.002Z,10.33
2023-05-02T03:00:49.610Z,10.14
2023-05-02T03:03:55.222Z,10.07
2023-05-02T03:06:57.549Z,10.01
2023-05-02T03:09:59.640Z,9.99
2023-05-02T03:13:02.014Z,9.89
2023-05-02T03:16:31.327Z,9.97
2023-05-02T03:19:37.140Z,9.92
2023-05-02T03:22:38.902Z,9.83
2023-05-02T03:25:44.894Z,9.85
2023-05-02T03:28:46.867Z,9.79
2023-05-02T03:31:48.967Z,9.88
2023-05-02T03:34:54.411Z,9.80
2023-05-02T03:37:56.429Z,9.90
2023-05-02T03:40:58.186Z,9.95
2023-05-02T03:43:59.949Z,9.95
2023-05-02T03:47:04.287Z,9.81
2023-05-02T03:50:09.366Z,9.87
2023-05-02T03:53:11.779Z,9.87
2023-05-02T03:56:17.477Z,10.02
2023-05-02T03:59:19.501Z,10.12
2023-05-02T04:02:21.334Z,10.17
2023-05-02T04:05:28.835Z,10.18
2023-05-02T04:08:30.715Z,10.13
2023-05-02T04:11:33.254Z,10.19
2023-05-02T04:14:35.082Z,10.24
2023-05-02T04:17:38.214Z,10.29
2023-05-02T04:20:43.308Z,10.34
2023-05-02T04:23:45.431Z,10.35
2023-05-02T04:26:49.777Z,10.39
2023-05-02T04:29:52.521Z,10.38
2023-05-02T04:32:54.635Z,10.37
2023-05-02T04:35:58.307Z,10.38
2023-05-02T04:39:03.493Z,10.44
2023-05-02T04:42:06.062Z,10.41
2023-05-02T04:45:12.152Z,10.34
2023-05-02T04:48:14.331Z,10.38
2023-05-02T04:51:18.037Z,10.38
2023-05-02T04:54:19.806Z,10.33
2023-05-02T04:57:23.340Z,10.40
2023-05-02T05:00:26.179Z,10.37
2023-05-02T05:03:28.129Z,10.47
2023-05-02T05:06:31.411Z,10.50
2023-05-02T05:09:33.465Z,10.44
2023-05-02T05:12:36.112Z,10.48
2023-05-02T05:15:38.015Z,10.40
2023-05-02T05:18:40.009Z,10.33
2023-05-02T05:21:43.658Z,10.33
2023-05-02T05:24:53.421Z,10.21
2023-05-02T05:27:57.450Z,10.21
2023-05-02T05:31:05.356Z,10.25
2023-05-02T05:34:08.880Z,10.19
2023-05-02T05:37:12.540Z,10.12
2023-05-02T05:40:14.360Z,10.19
2023-05-02T05:43:16.238Z,10.21
2023-05-02T05:46:19.106Z,10.21
2023-05-02T05:49:23.201Z,10.19
2023-05-02T05:52:29.608Z,10.13
2023-05-02T05:55:32.483Z,10.19
2023-05-02T05:58:37.365Z,10.17
2023-05-02T06:01:42.422Z,10.20
2023-05-02T06:04:46.311Z,10.20
2023-05-02T06:07:49.816Z,10.21
2023-05-02T06:10:51.636Z,10.26
2023-05-02T06:13:53.978Z,10.23
2023-05-02T06:16:58.940Z,10.35
2023-05-02T06:20:03.426Z,10.37
2023-05-02T06:23:10.314Z,10.30
2023-05-02T06:26:13.438Z,10.26
2023-05-02T06:29:15.426Z,10.29
2023-05-02T06:32:17.189Z,10.31
2023-05-02T06:35:19.057Z,10.29
2023-05-02T06:38:23.147Z,10.38
2023-05-02T06:41:24.867Z,10.32
2023-05-02T06:44:26.927Z,10.33
2023-05-02T06:47:30.136Z,10.26
2023-05-02T06:50:33.191Z,10.34
2023-05-02T06:53:36.801Z,10.36
2023-05-02T06:56:38.614Z,10.37
2023-05-02T06:59:40.382Z,10.41
2023-05-02T07:02:44.773Z,10.51
2023-05-02T07:05:46.787Z,10.52
2023-05-02T07:08:50.074Z,10.52
2023-05-02T07:11:54.428Z,10.58
2023-05-02T07:14:59.964Z,10.68
2023-05-02T07:18:02.499Z,10.72
2023-05-02T07:21:04.715Z,10.71
2023-05-02T07:24:08.398Z,10.77
2023-05-02T07:27:11.522Z,10.83
2023-05-02T07:30:13.911Z,10.65
2023-05-02T07:33:16.728Z,10.76
2023-05-02T07:36:18.751Z,10.61
2023-05-02T07:39:29.534Z,10.62
2023-05-02T07:42:33.647Z,10.78
2023-05-02T07:45:35.681Z,10.73
2023-05-02T07:48:37.592Z,10.71
2023-05-02T07:51:40.767Z,10.73
2023-05-02T07:54:45.038Z,10.77
2023-05-02T07:57:48.532Z,10.76
2023-05-02T08:00:50.433Z,10.85
2023-05-02T08:03:52.778Z,10.78
2023-05-02T08:06:55.526Z,10.80
2023-05-02T08:10:01.069Z,10.73
2023-05-02T08:13:04.651Z,10.88
2023-05-02T08:16:07.116Z,10.88
2023-05-02T08:19:09.094Z,10.98
2023-05-02T08:22:10.879Z,10.86
2023-05-02T08:25:16.643Z,10.96
2023-05-02T08:28:20.282Z,10.94
2023-05-02T08:31:22.223Z,10.99
2023-05-02T08:34:24.299Z,11.00
2023-05-02T08:37:27.497Z,10.98
2023-05-02T08:40:42.323Z,11.05
2023-05-02T08:43:45.884Z,11.16
2023-05-02T08:46:51.026Z,11.27
2023-05-02T08:49:55.319Z,11.28
2023-05-02T08:53:01.328Z,11.33
2023-05-02T08:56:06.365Z,11.24
2023-05-02T08:59:09.512Z,11.16
2023-05-02T09:02:21.150Z,11.40
2023-05-02T09:05:25.042Z,11.37
2023-05-02T09:08:27.047Z,11.41
2023-05-02T09:11:31.575Z,11.58
2023-05-02T09:14:33.335Z,11.54
2023-05-02T09:17:40.390Z,11.52
2023-05-02T09:20:43.723Z,11.42
2023-05-02T09:23:46.604Z,11.42
2023-05-02T09:26:59.391Z,11.56
2023-05-02T09:30:23.718Z,11.57
2023-05-02T09:33:27.108Z,11.67
2023-05-02T09:36:39.997Z,11.82
2023-05-02T09:39:42.207Z,11.73
2023-05-02T09:42:45.592Z,11.91
2023-05-02T09:46:00.549Z,11.89
2023-05-02T09:49:05.202Z,11.91
2023-05-02T09:52:10.874Z,11.96
2023-05-02T09:55:20.766Z,11.91
2023-05-02T09:58:24.524Z,11.87
2023-05-02T10:01:26.701Z,11.96
2023-05-02T10:04:34.534Z,11.87
2023-05-02T10:07:37.480Z,11.77
2023-05-02T10:10:42.986Z,11.83
2023-05-02T10:13:49.239Z,12.06
2023-05-02T10:16:58.967Z,12.07
2023-05-02T10:20:05.652Z,12.21
2023-05-02T10:23:08.807Z,12.27
2023-05-02T10:26:15.027Z,12.39
2023-05-02T10:29:19.023Z,12.58
2023-05-02T10:32:25.029Z,12.60
2023-05-02T10:35:29.646Z,12.54
2023-05-02T10:38:32.218Z,12.65
2023-05-02T10:41:35.005Z,12.80
2023-05-02T10:44:41.596Z,12.70
2023-05-02T10:47:44.537Z,12.76
2023-05-02T10:50:48.286Z,12.75
2023-05-02T10:53:51.661Z,12.76
2023-05-02T10:57:07.269Z,12.83
2023-05-02T11:00:24.652Z,12.92
2023-05-02T11:03:59.504Z,12.98
2023-05-02T11:07:20.680Z,12.96
2023-05-02T11:10:29.012Z,13.00
2023-05-02T11:13:49.497Z,13.01
2023-05-02T11:17:13.565Z,13.05
2023-05-02T11:20:24.255Z,13.09
2023-05-02T11:23:26.862Z,13.01
2023-05-02T11:26:28.900Z,13.06
2023-05-02T11:29:52.050Z,13.04
2023-05-02T11:33:17.813Z,13.02
2023-05-02T11:36:30.963Z,12.90
2023-05-02T11:39:32.727Z,12.91
2023-05-02T11:42:35.644Z,13.01
2023-05-02T11:45:38.242Z,12.93
2023-05-02T11:48:41.836Z,12.93
2023-05-02T11:51:44.019Z,12.92
2023-05-02T11:54:45.916Z,12.93
2023-05-02T11:57:47.986Z,12.96
2023-05-02T12:00:51.063Z,12.96
2023-05-02T12:04:04.457Z,12.93
2023-05-02T12:07:08.506Z,12.93
2023-05-02T12:10:13.463Z,12.97
2023-05-02T12:13:15.431Z,12.93
2023-05-02T12:16:17.744Z,12.92
2023-05-02T12:19:22.499Z,12.83
2023-05-02T12:22:28.658Z,12.75
2023-05-02T12:25:32.810Z,12.70
2023-05-02T12:28:48.513Z,12.71
2023-05-02T12:31:54.073Z,12.62
2023-05-02T12:35:00.323Z,12.59
2023-05-02T12:38:10.455Z,12.57
2023-05-02T12:41:13.068Z,12.68
2023-05-02T12:44:15.020Z,12.74
2023-05-02T12:47:17.413Z,12.62
2023-05-02T12:50:21.376Z,12.60
2023-05-02T12:53:39.585Z,12.65
2023-05-02T12:56:41.874Z,12.71
2023-05-02T12:59:44.297Z,12.65
2023-05-02T13:02:46.194Z,12.75
2023-05-02T13:05:56.125Z,12.83
2023-05-02T13:08:58.649Z,12.87
2023-05-02T13:12:01.118Z,12.89
2023-05-02T13:15:03.210Z,12.77
2023-05-02T13:18:07.772Z,12.76
2023-05-02T13:21:10.976Z,12.67
2023-05-02T13:24:12.884Z,12.63
2023-05-02T13:27:14.728Z,12.62
2023-05-02T13:30:17.048Z,12.59
2023-05-02T13:33:18.930Z,12.64
2023-05-02T13:36:24.553Z,12.67
2023-05-02T13:39:28.998Z,12.54
2023-05-02T13:42:31.937Z,12.72
2023-05-02T13:45:34.173Z,12.61
2023-05-02T13:48:36.916Z,12.65
2023-05-02T13:51:40.756Z,12.71
2023-05-02T13:54:42.541Z,12.70
2023-05-02T13:57:44.397Z,12.59
2023-05-02T14:00:48.736Z,12.59
2023-05-02T14:03:52.053Z,12.69
2023-05-02T14:06:55.374Z,12.60
2023-05-02T14:09:57.665Z,12.62
2023-05-02T14:12:59.707Z,13.00
2023-05-02T14:16:02.035Z,13.16
2023-05-02T14:19:08.107Z,13.31
2023-05-02T14:22:13.771Z,13.47
2023-05-02T14:25:16.706Z,13.47
2023-05-02T14:28:18.716Z,13.41
2023-05-02T14:31:20.523Z,13.33
2023-05-02T14:34:22.561Z,13.28
2023-05-02T14:37:25.757Z,13.36
2023-05-02T14:40:30.130Z,13.46
2023-05-02T14:43:32.104Z,13.52
2023-05-02T14:46:36.482Z,13.48
2023-05-02T14:49:38.287Z,13.58
2023-05-02T14:52:41.930Z,13.55
2023-05-02T14:55:43.749Z,13.52
2023-05-02T14:58:45.872Z,13.42
2023-05-02T15:01:50.002Z,13.35
2023-05-02T15:04:51.937Z,13.26
2023-05-02T15:07:55.148Z,13.27
2023-05-02T15:10:58.138Z,13.32
2023-05-02T15:14:00.169Z,13.30
2023-05-02T15:17:02.132Z,13.13
2023-05-02T15:20:05.273Z,12.98
2023-05-02T15:23:08.724Z,12.72
2023-05-02T15:26:11.499Z,12.70
2023-05-02T15:29:13.594Z,12.70
2023-05-02T15:32:16.173Z,12.78
2023-05-02T15:35:18.370Z,12.92
2023-05-02T15:38:22.210Z,12.97
2023-05-02T15:41:25.454Z,13.06
2023-05-02T15:44:27.501Z,12.82
2023-05-02T15:47:30.918Z,12.57
2023-05-02T15:50:36.342Z,12.06
2023-05-02T15:53:41.460Z,11.54
2023-05-02T15:56:44.283Z,11.64
2023-05-02T15:59:47.484Z,11.55
2023-05-02T16:02:51.890Z,11.77
2023-05-02T16:05:53.868Z,11.81
2023-05-02T16:08:57.015Z,11.85
2023-05-02T16:11:59.013Z,11.98
2023-05-02T16:15:03.650Z,12.06
2023-05-02T16:18:06.110Z,11.83
2023-05-02T16:21:08.754Z,11.98
2023-05-02T16:24:12.165Z,12.14
2023-05-02T16:27:14.214Z,12.24
2023-05-02T16:30:16.745Z,12.29
2023-05-02T16:33:19.078Z,12.29
2023-05-02T16:36:21.145Z,12.26
2023-05-02T16:39:24.317Z,12.24
2023-05-02T16:42:30.581Z,12.30
2023-05-02T16:45:35.460Z,12.35
2023-05-02T16:48:37.638Z,12.34
2023-05-02T16:51:40.114Z,12.37
2023-05-02T16:54:44.266Z,12.39
2023-05-02T16:57:46.046Z,12.34
2023-05-02T17:00:48.593Z,12.39
2023-05-02T17:03:50.873Z,12.40
2023-05-02T17:06:55.197Z,12.39
2023-05-02T17:09:58.910Z,12.20
2023-05-02T17:13:00.655Z,11.95
2023-05-02T17:16:02.495Z,11.81
2023-05-02T17:19:04.596Z,11.74
2023-05-02T17:22:06.801Z,11.72
2023-05-02T17:25:13.758Z,11.50
2023-05-02T17:28:16.226Z,11.43
2023-05-02T17:31:22.462Z,11.50
2023-05-02T17:34:24.578Z,11.51
2023-05-02T17:37:26.929Z,11.47
2023-05-02T17:40:30.888Z,11.50
2023-05-02T17:43:33.512Z,11.54
2023-05-02T17:46:36.551Z,11.67
2023-05-02T17:49:39.483Z,11.75
2023-05-02T17:52:43.625Z,11.73
2023-05-02T17:55:48.897Z,11.76
2023-05-02T17:58:51.427Z,11.71
2023-05-02T18:01:53.800Z,11.72
2023-05-02T18:04:56.618Z,11.69
2023-05-02T18:07:58.776Z,11.74
2023-05-02T18:11:03.081Z,11.73
2023-05-02T18:14:09.424Z,11.74
2023-05-02T18:17:11.615Z,11.64
2023-05-02T18:20:14.826Z,11.61
2023-05-02T18:23:17.271Z,11.59
2023-05-02T18:26:21.616Z,11.45
2023-05-02T18:29:25.819Z,11.44
2023-05-02T18:32:27.965Z,11.33
2023-05-02T18:35:29.966Z,11.45
2023-05-02T18:38:32.118Z,11.47
2023-05-02T18:41:35.876Z,11.50
2023-05-02T18:44:37.653Z,11.44
2023-05-02T18:47:42.153Z,11.36
2023-05-02T18:50:45.047Z,11.48
2023-05-02T18:53:48.469Z,11.51
2023-05-02T18:56:52.098Z,11.51
2023-05-02T18:59:56.545Z,11.54
2023-05-02T19:02:58.557Z,11.53
2023-05-02T19:06:01.205Z,11.46
2023-05-02T19:09:06.239Z,11.47
2023-05-02T19:12:12.254Z,11.46
2023-05-02T19:15:16.068Z,11.52
2023-05-02T19:18:18.530Z,11.50
2023-05-02T19:21:20.620Z,11.52
2023-05-02T19:24:25.128Z,11.51
2023-05-02T19:27:29.810Z,11.54
2023-05-02T19:30:34.228Z,11.53
2023-05-02T19:33:37.294Z,11.50
2023-05-02T19:36:39.977Z,11.47
2023-05-02T19:39:42.145Z,11.43
2023-05-02T19:42:46.233Z,11.40
2023-05-02T19:45:51.179Z,11.42
2023-05-02T19:48:53.651Z,11.48
2023-05-02T19:51:55.578Z,11.44
2023-05-02T19:54:58.161Z,11.43
2023-05-02T19:58:04.601Z,11.40
2023-05-02T20:01:06.753Z,11.35
2023-05-02T20:04:09.061Z,11.37
2023-05-02T20:07:12.740Z,11.36
2023-05-02T20:10:14.669Z,11.29
2023-05-02T20:13:17.958Z,11.25
2023-05-02T20:16:20.055Z,11.27
2023-05-02T20:19:22.881Z,11.28
2023-05-02T20:22:25.469Z,11.26
2023-05-02T20:25:27.307Z,11.25
2023-05-02T20:28:31.169Z,11.23
2023-05-02T20:31:35.777Z,11.11
2023-05-02T20:34:38.300Z,11.10
2023-05-02T20:37:40.581Z,11.09
2023-05-02T20:40:42.448Z,11.12
2023-05-02T20:43:45.821Z,11.10
2023-05-02T20:46:47.873Z,11.10
2023-05-02T20:49:49.933Z,11.02
2023-05-02T20:52:54.663Z,11.07
2023-05-02T20:55:58.217Z,11.06
2023-05-02T20:59:02.004Z,11.00
2023-05-02T21:02:05.995Z,10.92
2023-05-02T21:05:08.465Z,10.80
2023-05-02T21:08:10.351Z,10.82
2023-05-02T21:11:17.600Z,10.81
2023-05-02T21:14:23.093Z,10.80
2023-05-02T21:17:24.853Z,10.76
2023-05-02T21:20:26.960Z,10.77
2023-05-02T21:23:29.262Z,10.63
2023-05-02T21:26:30.984Z,10.74
2023-05-02T21:29:34.128Z,10.77
2023-05-02T21:32:36.187Z,10.61
2023-05-02T21:35:38.213Z,10.65
2023-05-02T21:38:40.111Z,10.55
2023-05-02T21:41:42.975Z,10.56
2023-05-02T21:44:46.212Z,10.59
2023-05-02T21:47:48.087Z,10.50
2023-05-02T21:50:49.969Z,10.46
2023-05-02T21:53:52.956Z,10.47
2023-05-02T21:56:58.331Z,10.48
2023-05-02T22:00:05.110Z,10.52
2023-05-02T22:03:08.396Z,10.61
2023-05-02T22:06:10.731Z,10.58
2023-05-02T22:09:12.554Z,10.64
2023-05-02T22:12:14.649Z,10.52
2023-05-02T22:15:18.084Z,10.44
2023-05-02T22:18:20.272Z,10.53
2023-05-02T22:21:24.640Z,10.47
2023-05-02T22:24:26.887Z,10.47
2023-05-02T22:27:28.748Z,10.46
2023-05-02T22:30:31.911Z,10.43
2023-05-02T22:33:33.880Z,10.29
2023-05-02T22:36:43.367Z,10.40
2023-05-02T22:39:45.247Z,10.43
2023-05-02T22:42:49.615Z,10.47
2023-05-02T22:45:53.077Z,10.48
2023-05-02T22:48:55.390Z,10.46
2023-05-02T22:52:00.586Z,10.36
2023-05-02T22:55:02.628Z,10.33
2023-05-02T22:58:07.135Z,10.42
2023-05-02T23:01:10.287Z,10.46
2023-05-02T23:04:12.089Z,10.48
2023-05-02T23:07:15.271Z,10.40
2023-05-02T23:10:20.783Z,10.33
2023-05-02T23:13:23.338Z,10.26
2023-05-02T23:16:26.803Z,10.22
2023-05-02T23:19:28.883Z,10.30
2023-05-02T23:22:30.993Z,10.33
2023-05-02T23:25:37.224Z,10.21
2023-05-02T23:28:42.460Z,10.22
2023-05-02T23:31:49.025Z,10.11
2023-05-02T23:34:50.955Z,10.14
2023-05-02T23:37:53.893Z,10.01
2023-05-02T23:40:56.787Z,9.89
2023-05-02T23:43:58.619Z,9.84
2023-05-02T23:47:04.220Z,9.77
2023-05-02T23:50:08.947Z,9.81
2023-05-02T23:53:13.480Z,9.86
2023-05-02T23:56:15.509Z,9.88
2023-05-02T23:59:17.568Z,9.92
